Airport Name : Brownwood Rgnl

Other Name : Brownwood Rgnl

ICAO : KBWD

IATA : BWD

FAA : BWD

Latitude : 31.793622

Longitude : -98.956494

Local Date and Time : 01 Jan 0001 00:00

 

TAF (Terminal Aerodrome Forecast)

 

METAR (METeorological Aerodrome Report)

KBWD 220015Z AUTO 19006KT CLR 27/19 A3000 RMK AO1 VSBY 2V5

KBWD 212355Z AUTO 18008KT CLR 27/19 A3000 RMK AO1 VSBY 2V5

KBWD 212335Z AUTO 17010KT CLR 27/19 A3000 RMK AO1 VSBY 2V5

KBWD 212315Z AUTO 18016G20KT CLR 28/20 A2999 RMK AO1 VSBY 2V5

KBWD 212255Z AUTO 18012G15KT FEW050 27/20 A2999 RMK AO1 VSBY 2V5

KBWD 212235Z AUTO 17013G21KT BKN050 26/22 A2999 RMK AO1 VSBY 2V5